createdAt,value
2018-06-22T00:02:43.718Z,61.20
2018-06-22T00:05:13.965Z,60.80
2018-06-22T00:07:54.770Z,60.60
2018-06-22T00:10:27.614Z,60.10
2018-06-22T00:15:33.399Z,60.00
2018-06-22T00:18:04.618Z,59.70
2018-06-22T00:20:37.519Z,59.40
2018-06-22T00:23:07.567Z,58.90
2018-06-22T00:25:40.542Z,58.00
2018-06-22T00:28:15.642Z,58.30
2018-06-22T00:30:45.429Z,59.80
2018-06-22T00:33:17.320Z,60.10
2018-06-22T00:35:48.730Z,62.00
2018-06-22T00:38:20.012Z,61.00
2018-06-22T00:40:55.619Z,60.80
2018-06-22T00:43:28.564Z,61.70
2018-06-22T00:46:01.903Z,60.50
2018-06-22T00:48:35.872Z,60.00
2018-06-22T00:51:09.437Z,61.20
2018-06-22T00:53:52.700Z,62.50
2018-06-22T00:58:54.021Z,59.90
2018-06-22T01:01:41.404Z,61.90
2018-06-22T01:04:15.189Z,60.90
2018-06-22T01:06:52.558Z,59.80
2018-06-22T01:09:29.645Z,60.50
2018-06-22T01:12:00.397Z,60.50
2018-06-22T01:14:38.694Z,59.40
2018-06-22T01:17:20.513Z,59.00
2018-06-22T01:19:52.782Z,57.90
2018-06-22T01:22:24.595Z,58.20
2018-06-22T01:24:56.447Z,57.50
2018-06-22T01:27:28.756Z,57.00
2018-06-22T01:30:00.187Z,57.80
2018-06-22T01:32:29.975Z,58.40
2018-06-22T01:35:01.110Z,58.40
2018-06-22T01:37:34.624Z,60.00
2018-06-22T01:40:10.670Z,59.30
2018-06-22T01:42:41.027Z,59.40
2018-06-22T01:45:13.341Z,57.90
2018-06-22T01:47:45.454Z,58.40
2018-06-22T01:50:17.247Z,59.20
2018-06-22T01:52:48.321Z,59.10
2018-06-22T01:55:21.518Z,59.20
2018-06-22T01:57:55.105Z,58.50
2018-06-22T02:00:30.833Z,57.80
2018-06-22T02:03:02.021Z,58.80
2018-06-22T02:05:34.138Z,59.00
2018-06-22T02:08:07.916Z,60.20
2018-06-22T02:10:38.038Z,60.10
2018-06-22T02:13:11.676Z,59.70
2018-06-22T02:15:43.151Z,59.10
2018-06-22T02:18:14.783Z,60.00
2018-06-22T02:20:46.775Z,60.50
2018-06-22T02:23:17.250Z,61.10
2018-06-22T02:25:48.377Z,61.30
2018-06-22T02:28:20.799Z,60.80
2018-06-22T02:30:55.293Z,61.90
2018-06-22T02:33:25.352Z,61.90
2018-06-22T02:35:55.629Z,61.90
2018-06-22T02:38:25.611Z,61.10
2018-06-22T02:40:58.619Z,61.30
2018-06-22T02:43:28.550Z,61.80
2018-06-22T02:45:58.720Z,61.10
2018-06-22T02:48:30.524Z,61.50
2018-06-22T02:51:01.266Z,61.90
2018-06-22T02:53:34.151Z,61.10
2018-06-22T02:56:04.018Z,61.30
2018-06-22T02:58:35.458Z,62.30
2018-06-22T03:01:05.563Z,62.50
2018-06-22T03:03:35.369Z,61.90
2018-06-22T03:06:06.464Z,62.30
2018-06-22T03:08:36.727Z,62.00
2018-06-22T03:11:13.110Z,62.10
2018-06-22T03:13:44.201Z,62.30
2018-06-22T03:16:14.572Z,64.10
2018-06-22T03:18:45.390Z,63.60
2018-06-22T03:21:15.395Z,62.40
2018-06-22T03:23:45.537Z,62.80
2018-06-22T03:26:15.543Z,65.10
2018-06-22T03:31:15.894Z,66.30
2018-06-22T03:33:45.857Z,65.70
2018-06-22T03:36:15.902Z,65.20
2018-06-22T03:38:46.128Z,66.90
2018-06-22T03:41:16.162Z,64.90
2018-06-22T03:43:47.345Z,64.10
2018-06-22T03:46:18.025Z,63.30
2018-06-22T03:48:48.310Z,62.90
2018-06-22T03:51:19.580Z,63.00
2018-06-22T03:53:51.464Z,65.10
2018-06-22T03:56:22.620Z,66.60
2018-06-22T03:58:53.617Z,66.10
2018-06-22T04:01:23.724Z,65.50
2018-06-22T04:03:56.680Z,64.90
2018-06-22T04:06:26.868Z,65.70
2018-06-22T04:52:39.486Z,64.10
2018-06-22T04:55:11.552Z,51.90
2018-06-22T05:00:11.872Z,51.80
2018-06-22T05:02:42.073Z,49.90
2018-06-22T05:10:12.993Z,49.60
2018-06-22T05:12:43.549Z,49.60
2018-06-22T05:15:14.889Z,50.20
2018-06-22T05:17:44.983Z,50.80
2018-06-22T05:20:15.219Z,54.60
2018-06-22T05:22:45.756Z,55.40
2018-06-22T05:25:17.576Z,54.30
2018-06-22T05:30:19.156Z,56.20
2018-06-22T05:32:50.300Z,57.60
2018-06-22T05:35:20.125Z,56.30
2018-06-22T05:40:19.947Z,55.00
2018-06-22T05:42:50.266Z,57.10
2018-06-22T05:45:20.645Z,58.10
2018-06-22T05:47:50.665Z,58.70
2018-06-22T05:50:21.380Z,57.60
2018-06-22T05:52:51.499Z,57.20
2018-06-22T05:55:21.869Z,57.70
2018-06-22T05:57:52.825Z,57.70
2018-06-22T06:00:23.615Z,58.60
2018-06-22T06:02:54.337Z,58.30
2018-06-22T06:05:26.040Z,61.00
2018-06-22T06:07:55.907Z,59.90
2018-06-22T06:10:26.212Z,58.20
2018-06-22T06:12:58.118Z,58.60
2018-06-22T06:15:34.332Z,57.50
2018-06-22T06:23:14.590Z,57.80
2018-06-22T06:25:46.928Z,58.10
2018-06-22T06:28:18.426Z,57.90
2018-06-22T06:30:52.115Z,59.70
2018-06-22T06:33:23.583Z,60.00
2018-06-22T06:36:00.307Z,61.40
2018-06-22T06:38:41.377Z,59.10
2018-06-22T06:41:12.741Z,57.50
2018-06-22T06:43:43.344Z,56.80
2018-06-22T06:46:14.774Z,57.10
2018-06-22T06:48:47.177Z,55.80
2018-06-22T06:53:52.039Z,55.30
2018-06-22T06:56:22.885Z,56.40
2018-06-22T06:58:58.321Z,57.30
2018-06-22T07:01:28.786Z,56.40
2018-06-22T07:04:00.640Z,59.20
2018-06-22T07:06:30.912Z,57.10
2018-06-22T07:09:01.153Z,55.80
2018-06-22T07:11:37.008Z,55.70
2018-06-22T07:14:10.565Z,56.30
2018-06-22T07:19:30.266Z,54.60
2018-06-22T07:22:03.741Z,55.30
2018-06-22T07:24:34.334Z,55.10
2018-06-22T07:27:12.365Z,55.00
2018-06-22T07:29:50.343Z,53.30
2018-06-22T07:32:21.496Z,52.70
2018-06-22T07:34:52.596Z,52.80
2018-06-22T07:37:24.187Z,53.20
2018-06-22T07:44:58.811Z,56.10
2018-06-22T07:47:29.182Z,53.70
2018-06-22T07:50:02.652Z,53.80
2018-06-22T07:52:34.916Z,52.40
2018-06-22T07:57:38.680Z,52.20
2018-06-22T08:00:10.266Z,52.80
2018-06-22T08:02:43.120Z,52.70
2018-06-22T08:05:14.061Z,52.20
2018-06-22T08:07:46.090Z,51.70
2018-06-22T08:10:17.364Z,52.60
2018-06-22T08:12:51.203Z,52.10
2018-06-22T08:15:22.070Z,52.90
2018-06-22T08:17:53.245Z,52.00
2018-06-22T08:20:24.947Z,52.10
2018-06-22T08:22:56.892Z,52.70
2018-06-22T08:25:27.393Z,53.10
2018-06-22T08:27:58.938Z,53.20
2018-06-22T08:30:31.009Z,52.20
2018-06-22T08:33:04.864Z,52.20
2018-06-22T08:35:36.050Z,51.90
2018-06-22T08:38:08.490Z,52.60
2018-06-22T08:40:46.495Z,52.10
2018-06-22T08:43:17.360Z,53.40
2018-06-22T08:45:48.876Z,53.60
2018-06-22T08:48:23.532Z,53.00
2018-06-22T08:50:56.036Z,52.60
2018-06-22T08:53:26.094Z,52.50
2018-06-22T08:55:59.962Z,52.80
2018-06-22T08:58:30.476Z,50.90
2018-06-22T09:01:04.967Z,51.80
2018-06-22T09:03:35.751Z,53.60
2018-06-22T09:06:10.244Z,52.00
2018-06-22T09:08:40.564Z,51.10
2018-06-22T09:11:17.328Z,50.70
2018-06-22T09:13:48.488Z,51.10
2018-06-22T09:16:19.348Z,51.10
2018-06-22T09:18:57.001Z,51.20
2018-06-22T09:21:30.268Z,50.70
2018-06-22T09:24:01.713Z,52.40
2018-06-22T09:26:39.419Z,50.50
2018-06-22T09:29:10.345Z,49.20
2018-06-22T09:31:43.993Z,51.10
2018-06-22T09:34:16.153Z,50.80
2018-06-22T09:36:49.452Z,51.00
2018-06-22T09:39:21.485Z,50.70
2018-06-22T09:41:53.081Z,50.60
2018-06-22T09:44:42.078Z,50.10
2018-06-22T09:47:16.555Z,50.00
2018-06-22T09:52:20.345Z,49.00
2018-06-22T09:54:53.601Z,49.60
2018-06-22T09:57:33.563Z,48.80
2018-06-22T10:00:09.932Z,49.60
2018-06-22T10:02:44.934Z,49.40
2018-06-22T10:05:19.290Z,49.20
2018-06-22T10:07:53.507Z,49.70
2018-06-22T10:10:28.285Z,49.70
2018-06-22T10:13:04.024Z,49.90
2018-06-22T10:18:17.780Z,50.40
2018-06-22T10:20:54.689Z,51.00
2018-06-22T10:23:52.573Z,50.00
2018-06-22T10:26:26.238Z,50.40
2018-06-22T10:31:33.095Z,49.90
2018-06-22T10:34:05.796Z,49.30
2018-06-22T10:39:12.838Z,48.50
2018-06-22T10:41:46.955Z,47.30
2018-06-22T10:44:23.061Z,46.60
2018-06-22T10:49:37.055Z,47.60
2018-06-22T10:52:11.531Z,46.70
2018-06-22T10:54:48.245Z,46.60
2018-06-22T10:57:23.057Z,46.40
2018-06-22T10:59:57.493Z,46.90
2018-06-22T11:02:34.432Z,46.80
2018-06-22T11:05:17.453Z,47.00
2018-06-22T11:07:49.634Z,48.20
2018-06-22T11:10:24.007Z,49.90
2018-06-22T11:13:09.393Z,50.00
2018-06-22T11:15:52.056Z,49.10
2018-06-22T11:18:27.040Z,48.70
2018-06-22T11:21:07.459Z,49.30
2018-06-22T11:23:45.785Z,49.10
2018-06-22T11:26:21.602Z,47.80
2018-06-22T11:29:01.245Z,48.10
2018-06-22T11:31:36.124Z,48.30
2018-06-22T11:34:11.851Z,49.30
2018-06-22T11:36:47.961Z,51.30
2018-06-22T11:39:23.363Z,51.40
2018-06-22T11:42:01.480Z,52.00
2018-06-22T11:44:37.542Z,50.70
2018-06-22T11:47:14.573Z,48.90
2018-06-22T11:52:48.848Z,49.00
2018-06-22T11:55:28.685Z,49.40
2018-06-22T11:58:12.305Z,48.00
2018-06-22T12:00:44.337Z,47.60
2018-06-22T12:03:28.412Z,47.80
2018-06-22T12:06:00.031Z,47.40
2018-06-22T12:08:36.243Z,47.30
2018-06-22T12:11:11.982Z,48.30
2018-06-22T12:13:46.287Z,48.90
2018-06-22T12:16:30.787Z,48.50
2018-06-22T12:19:04.349Z,48.20
2018-06-22T12:21:40.020Z,47.90
2018-06-22T12:24:13.615Z,48.30
2018-06-22T12:26:49.685Z,49.60
2018-06-22T12:29:21.898Z,49.80
2018-06-22T12:31:54.112Z,50.10
2018-06-22T12:34:26.606Z,51.50
2018-06-22T12:36:58.706Z,48.80
2018-06-22T12:39:31.755Z,48.80
2018-06-22T12:42:05.785Z,49.20
2018-06-22T12:44:44.273Z,48.10
2018-06-22T12:47:17.646Z,47.40
2018-06-22T12:49:59.019Z,47.70
2018-06-22T12:52:30.872Z,47.60
2018-06-22T12:55:07.302Z,47.50
2018-06-22T12:57:47.157Z,48.00
2018-06-22T13:00:24.006Z,48.50
2018-06-22T13:02:57.581Z,47.80
2018-06-22T13:05:36.581Z,48.90
2018-06-22T13:08:13.165Z,49.50
2018-06-22T13:10:53.497Z,50.10
2018-06-22T13:13:41.376Z,49.40
2018-06-22T13:16:21.710Z,49.40
2018-06-22T13:18:56.889Z,49.10
2018-06-22T13:21:30.578Z,48.60
2018-06-22T13:24:04.920Z,48.40
2018-06-22T13:26:39.172Z,47.80
2018-06-22T13:29:20.731Z,47.70
2018-06-22T13:31:59.417Z,47.30
2018-06-22T13:34:33.585Z,47.60
2018-06-22T13:37:07.504Z,48.70
2018-06-22T13:39:37.525Z,50.30
2018-06-22T13:42:09.246Z,49.30
2018-06-22T13:44:39.464Z,49.20
2018-06-22T13:47:09.972Z,50.50
2018-06-22T13:49:40.466Z,50.90
2018-06-22T13:52:15.689Z,51.80
2018-06-22T13:54:50.294Z,50.40
2018-06-22T13:57:22.617Z,51.30
2018-06-22T13:59:54.557Z,50.70
2018-06-22T14:02:27.616Z,49.10
2018-06-22T14:05:08.635Z,49.10
2018-06-22T14:07:42.621Z,49.30
2018-06-22T14:10:14.840Z,49.20
2018-06-22T14:12:52.820Z,48.90
2018-06-22T14:15:31.409Z,48.30
2018-06-22T14:18:07.793Z,48.50
2018-06-22T14:20:50.185Z,50.10
2018-06-22T14:24:45.704Z,49.60
2018-06-22T14:27:34.442Z,50.20
2018-06-22T14:30:08.800Z,50.40
2018-06-22T14:32:41.008Z,51.30
2018-06-22T14:38:42.771Z,50.30
2018-06-22T14:41:32.237Z,50.40
2018-06-22T14:44:03.358Z,50.60
2018-06-22T14:46:33.733Z,51.70
2018-06-22T14:49:20.356Z,51.40
2018-06-22T14:51:55.001Z,51.50
2018-06-22T14:54:31.140Z,52.70
2018-06-22T14:57:08.835Z,51.50
2018-06-22T14:59:45.842Z,51.20
2018-06-22T15:02:21.937Z,50.50
2018-06-22T15:04:58.552Z,49.60
2018-06-22T15:07:36.225Z,48.80
2018-06-22T15:10:09.509Z,47.80
2018-06-22T15:12:41.909Z,47.90
2018-06-22T15:15:14.361Z,49.80
2018-06-22T15:17:53.192Z,50.50
2018-06-22T15:20:48.992Z,52.10
2018-06-22T15:23:22.463Z,52.10
2018-06-22T15:25:53.871Z,51.80
2018-06-22T15:28:42.236Z,51.90
2018-06-22T15:31:13.559Z,51.90
2018-06-22T15:33:51.420Z,51.70
2018-06-22T15:36:44.375Z,51.20
2018-06-22T15:39:28.354Z,50.90
2018-06-22T15:42:03.217Z,51.70
2018-06-22T15:44:38.928Z,51.00
2018-06-22T15:47:18.372Z,50.80
2018-06-22T15:49:53.706Z,51.50
2018-06-22T15:52:29.741Z,52.20
2018-06-22T15:55:17.145Z,53.80
2018-06-22T15:57:48.117Z,54.20
2018-06-22T16:00:22.053Z,55.00
2018-06-22T16:02:58.022Z,54.40
2018-06-22T16:05:29.216Z,54.20
2018-06-22T16:08:00.409Z,55.10
2018-06-22T16:10:31.235Z,55.50
2018-06-22T16:13:01.529Z,54.90
2018-06-22T16:15:39.907Z,56.00
2018-06-22T16:18:15.942Z,56.00
2018-06-22T16:25:08.597Z,53.80
2018-06-22T16:27:43.206Z,53.50
2018-06-22T16:30:15.066Z,53.90
2018-06-22T16:32:53.350Z,53.80
2018-06-22T16:35:28.316Z,53.20
2018-06-22T16:38:03.914Z,53.50
2018-06-22T16:40:34.306Z,54.00
2018-06-22T16:43:05.949Z,54.40
2018-06-22T16:45:40.214Z,54.30
2018-06-22T16:48:16.671Z,55.10
2018-06-22T16:50:47.569Z,55.70
2018-06-22T16:53:24.786Z,54.80
2018-06-22T16:55:55.440Z,54.50
2018-06-22T16:58:53.737Z,53.50
2018-06-22T17:01:24.853Z,54.20
2018-06-22T17:03:54.874Z,54.40
2018-06-22T17:06:25.812Z,55.00
2018-06-22T17:09:02.216Z,55.40
2018-06-22T17:11:38.338Z,55.00
2018-06-22T17:14:13.894Z,55.20
2018-06-22T17:19:24.578Z,55.40
2018-06-22T17:22:01.406Z,56.00
2018-06-22T17:24:33.637Z,56.00
2018-06-22T17:29:37.560Z,55.50
2018-06-22T17:32:09.140Z,57.40
2018-06-22T17:34:54.830Z,57.60
2018-06-22T17:37:55.052Z,58.60
2018-06-22T17:40:26.483Z,59.20
2018-06-22T17:42:58.354Z,58.20
2018-06-22T17:45:31.950Z,58.00
2018-06-22T17:48:05.315Z,58.40
2018-06-22T17:50:36.686Z,58.80
2018-06-22T17:53:16.412Z,58.70
2018-06-22T17:55:54.792Z,58.20
2018-06-22T17:58:29.072Z,57.80
2018-06-22T18:01:09.577Z,56.80
2018-06-22T18:03:50.540Z,57.20
2018-06-22T18:06:28.803Z,57.90
2018-06-22T18:09:04.525Z,57.00
2018-06-22T18:11:44.360Z,58.30
2018-06-22T18:14:18.149Z,57.80
2018-06-22T18:16:58.411Z,57.80
2018-06-22T18:19:35.302Z,57.30
2018-06-22T18:22:12.401Z,57.50
2018-06-22T18:24:48.400Z,56.90
2018-06-22T18:27:41.583Z,57.00
2018-06-22T18:30:22.689Z,57.20
2018-06-22T18:32:54.142Z,56.30
2018-06-22T18:35:24.656Z,56.00
2018-06-22T18:38:03.432Z,56.10
2018-06-22T18:43:30.392Z,56.60
2018-06-22T18:46:15.253Z,58.00
2018-06-22T18:48:48.727Z,58.50
2018-06-22T18:51:33.857Z,58.20
2018-06-22T18:54:11.545Z,58.30
2018-06-22T18:56:49.952Z,58.10
2018-06-22T18:59:28.566Z,59.00
2018-06-22T19:02:07.480Z,57.40
2018-06-22T19:04:39.594Z,56.90
2018-06-22T19:07:14.799Z,57.20
2018-06-22T19:09:47.483Z,58.00
2018-06-22T19:12:21.930Z,57.10
2018-06-22T19:14:54.299Z,57.70
2018-06-22T19:17:31.880Z,58.10
2018-06-22T19:20:07.726Z,58.60
2018-06-22T19:22:52.640Z,58.90
2018-06-22T19:25:32.407Z,58.80
2018-06-22T19:28:05.766Z,59.40
2018-06-22T19:30:51.450Z,59.30
2018-06-22T19:33:27.158Z,58.70
2018-06-22T19:36:08.604Z,58.80
2018-06-22T19:38:47.937Z,59.60
2018-06-22T19:41:20.849Z,59.30
2018-06-22T19:43:59.471Z,62.00
2018-06-22T19:46:40.703Z,61.80
2018-06-22T19:49:17.564Z,60.60
2018-06-22T19:51:55.338Z,59.90
2018-06-22T19:54:28.452Z,60.00
2018-06-22T19:57:05.438Z,61.40
2018-06-22T19:59:36.285Z,59.60
2018-06-22T20:02:11.084Z,61.10
2018-06-22T20:04:47.487Z,60.30
2018-06-22T20:07:21.256Z,60.50
2018-06-22T20:09:56.900Z,59.80
2018-06-22T20:12:29.011Z,61.10
2018-06-22T20:15:02.591Z,61.70
2018-06-22T20:17:47.804Z,63.10
2018-06-22T20:20:24.977Z,61.90
2018-06-22T20:22:57.568Z,62.70
2018-06-22T20:25:36.505Z,61.00
2018-06-22T20:28:11.739Z,61.20
2018-06-22T20:30:53.672Z,60.70
2018-06-22T20:33:28.633Z,60.30
2018-06-22T20:36:10.333Z,63.50
2018-06-22T20:38:46.845Z,64.10
2018-06-22T20:41:27.493Z,63.20
2018-06-22T20:44:03.741Z,63.40
2018-06-22T20:46:48.413Z,62.90
2018-06-22T20:49:25.835Z,62.80
2018-06-22T20:52:04.048Z,62.50
2018-06-22T20:54:37.420Z,62.40
2018-06-22T20:57:18.695Z,64.20
2018-06-22T20:59:54.442Z,64.30
2018-06-22T21:02:26.775Z,63.50
2018-06-22T21:05:05.503Z,63.40
2018-06-22T21:07:42.081Z,63.30
2018-06-22T21:10:17.723Z,66.80
2018-06-22T21:12:51.357Z,68.40
2018-06-22T21:15:24.309Z,66.70
2018-06-22T21:20:37.585Z,65.20
2018-06-22T21:23:10.904Z,65.00
2018-06-22T21:25:44.845Z,66.00
2018-06-22T21:28:21.606Z,69.00
2018-06-22T21:30:58.580Z,68.50
2018-06-22T21:33:42.972Z,67.60
2018-06-22T21:36:26.530Z,67.80
2018-06-22T21:39:04.882Z,68.80
2018-06-22T21:41:44.811Z,68.70
2018-06-22T21:44:17.191Z,70.00
2018-06-22T21:46:54.668Z,67.60
2018-06-22T21:49:26.292Z,66.90
2018-06-22T21:51:59.957Z,67.30
2018-06-22T21:54:58.465Z,67.80
2018-06-22T21:57:41.942Z,66.80
2018-06-22T22:00:13.872Z,66.40
2018-06-22T22:02:47.013Z,67.00
2018-06-22T22:05:21.980Z,66.10
2018-06-22T22:07:59.080Z,66.20
2018-06-22T22:10:36.233Z,66.00
2018-06-22T22:13:07.594Z,65.30
2018-06-22T22:15:38.361Z,64.60
2018-06-22T22:18:09.643Z,64.90
2018-06-22T22:20:41.087Z,66.00
2018-06-22T22:23:15.353Z,65.80
2018-06-22T22:25:49.837Z,65.30
2018-06-22T22:28:21.056Z,66.00
2018-06-22T22:30:55.295Z,68.50
2018-06-22T22:33:25.599Z,68.00
2018-06-22T22:36:03.503Z,68.90
2018-06-22T22:55:19.497Z,67.00
2018-06-22T22:57:56.337Z,66.70
2018-06-22T23:00:29.955Z,67.20
2018-06-22T23:03:00.061Z,68.00
2018-06-22T23:05:35.144Z,67.80
2018-06-22T23:08:06.638Z,68.10
2018-06-22T23:10:37.114Z,67.70
2018-06-22T23:13:08.037Z,67.10
2018-06-22T23:15:40.200Z,66.70
2018-06-22T23:18:15.465Z,67.00
2018-06-22T23:20:48.568Z,69.60
2018-06-22T23:23:30.917Z,69.40
2018-06-22T23:26:01.134Z,68.90
2018-06-22T23:28:33.338Z,71.50
2018-06-22T23:31:07.623Z,72.30
2018-06-22T23:33:38.428Z,71.50
2018-06-22T23:36:08.914Z,69.80
2018-06-22T23:38:39.068Z,69.10
2018-06-22T23:41:09.353Z,68.60
2018-06-22T23:43:39.634Z,70.70
2018-06-22T23:46:11.158Z,71.10
2018-06-22T23:48:42.649Z,70.50
2018-06-22T23:51:14.781Z,69.50
2018-06-22T23:53:48.611Z,69.50
2018-06-22T23:56:19.935Z,69.10
2018-06-22T23:58:53.796Z,68.90
